createdAt,value
2019-06-04T00:00:49.798Z,96.01
2019-06-04T00:03:20.376Z,96.52
2019-06-04T00:05:54.171Z,96.14
2019-06-04T00:08:25.035Z,96.54
2019-06-04T00:11:00.808Z,97.07
2019-06-04T00:13:31.369Z,97.27
2019-06-04T00:16:20.234Z,98.00
2019-06-04T00:18:50.981Z,98.45
2019-06-04T00:21:21.497Z,98.76
2019-06-04T00:23:52.000Z,99.20
2019-06-04T00:26:23.197Z,99.81
2019-06-04T00:28:53.921Z,100.00
2019-06-04T00:31:34.312Z,99.75
2019-06-04T00:33:58.126Z,100.00
2019-06-04T00:36:29.004Z,100.00
2019-06-04T00:39:00.373Z,100.00
2019-06-04T00:41:31.071Z,100.00
2019-06-04T00:44:03.030Z,100.00
2019-06-04T00:46:35.140Z,100.00
2019-06-04T00:49:05.870Z,100.00
2019-06-04T00:51:36.489Z,100.00
2019-06-04T00:54:07.033Z,100.00
2019-06-04T00:56:37.543Z,100.00
2019-06-04T01:02:27.865Z,100.00
2019-06-04T01:04:58.312Z,100.00
2019-06-04T01:07:28.787Z,100.00
2019-06-04T01:09:59.624Z,100.00
2019-06-04T01:12:30.067Z,100.00
2019-06-04T01:15:07.097Z,100.00
2019-06-04T01:17:36.144Z,100.00
2019-06-04T01:20:11.295Z,100.00
2019-06-04T01:22:50.955Z,100.00
2019-06-04T01:25:26.122Z,100.00
2019-06-04T01:27:59.720Z,100.00
2019-06-04T01:30:30.504Z,100.00
2019-06-04T01:33:02.071Z,100.00
2019-06-04T01:35:32.669Z,100.00
2019-06-04T01:38:04.499Z,100.00
2019-06-04T01:40:35.491Z,100.00
2019-06-04T01:43:07.593Z,100.00
2019-06-04T01:45:38.860Z,100.00
2019-06-04T01:48:09.998Z,100.00
2019-06-04T01:50:40.753Z,100.00
2019-06-04T01:53:12.673Z,100.00
2019-06-04T01:55:43.576Z,100.00
2019-06-04T01:58:14.550Z,100.00
2019-06-04T02:00:45.831Z,100.00
2019-06-04T02:03:16.405Z,100.00
2019-06-04T02:05:48.200Z,100.00
2019-06-04T02:08:18.696Z,100.00
2019-06-04T02:10:52.610Z,100.00
2019-06-04T02:13:23.082Z,100.00
2019-06-04T02:15:53.681Z,100.00
2019-06-04T02:18:26.789Z,100.00
2019-06-04T02:28:28.051Z,100.00
2019-06-04T02:31:04.624Z,100.00
2019-06-04T02:33:35.482Z,100.00
2019-06-04T02:36:06.877Z,100.00
2019-06-04T02:38:45.986Z,100.00
2019-06-04T02:41:28.417Z,100.00
2019-06-04T02:44:05.236Z,100.00
2019-06-04T02:46:36.447Z,100.00
2019-06-04T02:49:07.343Z,100.00
2019-06-04T02:51:40.449Z,100.00
2019-06-04T02:54:15.911Z,100.00
2019-06-04T02:56:49.699Z,100.00
2019-06-04T03:02:27.665Z,100.00
2019-06-04T03:04:58.165Z,100.00
2019-06-04T03:07:28.689Z,100.00
2019-06-04T03:10:02.170Z,100.00
2019-06-04T03:12:33.180Z,100.00
2019-06-04T03:15:06.776Z,100.00
2019-06-04T03:17:43.313Z,100.00
2019-06-04T03:20:37.530Z,100.00
2019-06-04T03:23:11.454Z,100.00
2019-06-04T03:25:40.783Z,100.00
2019-06-04T03:28:11.409Z,100.00
2019-06-04T03:30:44.284Z,100.00
2019-06-04T03:33:52.414Z,100.00
2019-06-04T03:35:51.814Z,100.00
2019-06-04T03:38:23.325Z,100.00
2019-06-04T03:40:56.991Z,100.00
2019-06-04T03:43:27.554Z,100.00
2019-06-04T03:45:58.194Z,100.00
2019-06-04T03:48:28.779Z,100.00
2019-06-04T03:50:59.341Z,100.00
2019-06-04T03:53:29.776Z,100.00
2019-06-04T03:56:00.772Z,100.00
2019-06-04T03:58:31.512Z,100.00
2019-06-04T04:01:02.074Z,100.00
2019-06-04T04:03:32.968Z,100.00
2019-06-04T04:06:03.473Z,100.00
2019-06-04T04:08:34.017Z,100.00
2019-06-04T04:11:07.051Z,100.00
2019-06-04T04:13:38.233Z,100.00
2019-06-04T04:16:09.118Z,100.00
2019-06-04T04:18:45.939Z,100.00
2019-06-04T04:21:19.640Z,100.00
2019-06-04T04:23:51.452Z,100.00
2019-06-04T04:26:23.046Z,100.00
2019-06-04T04:28:53.863Z,100.00
2019-06-04T04:31:38.984Z,100.00
2019-06-04T04:34:24.695Z,100.00
2019-06-04T04:36:42.121Z,100.00
2019-06-04T04:39:12.917Z,100.00
2019-06-04T04:41:47.218Z,100.00
2019-06-04T04:44:18.453Z,100.00
2019-06-04T04:46:52.444Z,100.00
2019-06-04T04:49:23.499Z,96.87
2019-06-04T04:52:00.500Z,91.12
2019-06-04T04:54:33.952Z,90.62
2019-06-04T04:57:04.683Z,87.49
2019-06-04T05:02:28.318Z,83.37
2019-06-04T05:04:59.027Z,81.98
2019-06-04T05:07:31.777Z,81.43
2019-06-04T05:10:04.606Z,81.52
2019-06-04T05:12:38.134Z,81.20
2019-06-04T05:15:09.123Z,79.97
2019-06-04T05:17:45.483Z,78.37
2019-06-04T05:20:23.166Z,76.64
2019-06-04T05:22:57.528Z,75.97
2019-06-04T05:25:32.427Z,78.26
2019-06-04T05:28:03.911Z,76.72
2019-06-04T05:30:36.524Z,75.70
2019-06-04T05:33:06.934Z,77.81
2019-06-04T05:35:37.563Z,76.29
2019-06-04T05:38:08.311Z,74.91
2019-06-04T05:40:39.382Z,73.68
2019-06-04T05:43:11.246Z,72.53
2019-06-04T05:45:41.802Z,70.72
2019-06-04T05:48:12.476Z,69.48
2019-06-04T05:50:42.884Z,69.74
2019-06-04T05:53:13.449Z,68.10
2019-06-04T05:55:44.285Z,67.75
2019-06-04T05:58:15.061Z,68.04
2019-06-04T06:00:45.601Z,69.33
2019-06-04T06:03:19.066Z,68.81
2019-06-04T06:05:49.700Z,70.02
2019-06-04T06:08:27.427Z,69.29
2019-06-04T06:10:58.467Z,68.23
2019-06-04T06:13:30.005Z,68.45
2019-06-04T06:16:00.498Z,68.62
2019-06-04T06:18:34.892Z,67.27
2019-06-04T06:21:08.581Z,69.48
2019-06-04T06:23:40.516Z,67.16
2019-06-04T06:26:11.170Z,67.56
2019-06-04T06:28:41.762Z,68.11
2019-06-04T06:31:12.219Z,67.46
2019-06-04T06:33:42.548Z,67.33
2019-06-04T06:36:13.050Z,66.60
2019-06-04T06:38:55.327Z,65.57
2019-06-04T06:41:16.441Z,65.94
2019-06-04T06:43:47.218Z,66.11
2019-06-04T06:46:17.801Z,66.45
2019-06-04T06:48:48.226Z,66.30
2019-06-04T06:51:19.108Z,65.63
2019-06-04T06:53:49.652Z,66.56
2019-06-04T06:56:24.071Z,66.26
2019-06-04T07:02:28.168Z,65.73
2019-06-04T07:04:59.352Z,64.18
2019-06-04T07:07:33.195Z,66.43
2019-06-04T07:10:05.733Z,65.00
2019-06-04T07:12:38.978Z,65.80
2019-06-04T07:15:10.160Z,65.48
2019-06-04T07:17:40.631Z,63.12
2019-06-04T07:20:11.398Z,62.57
2019-06-04T07:22:43.192Z,63.62
2019-06-04T07:25:13.732Z,61.65
2019-06-04T07:27:44.246Z,61.92
2019-06-04T07:30:14.728Z,61.27
2019-06-04T07:32:45.310Z,61.09
2019-06-04T07:35:15.971Z,60.35
2019-06-04T07:37:49.377Z,58.88
2019-06-04T07:40:19.886Z,60.24
2019-06-04T07:42:50.307Z,59.84
2019-06-04T07:45:20.804Z,59.50
2019-06-04T07:47:51.262Z,58.30
2019-06-04T07:50:22.159Z,58.05
2019-06-04T07:52:52.655Z,59.18
2019-06-04T07:55:26.550Z,57.12
2019-06-04T07:58:00.805Z,58.72
2019-06-04T08:00:49.207Z,56.67
2019-06-04T08:03:22.817Z,55.87
2019-06-04T08:05:56.684Z,56.44
2019-06-04T08:08:30.013Z,57.41
2019-06-04T08:11:00.471Z,55.90
2019-06-04T08:13:38.006Z,55.18
2019-06-04T08:16:09.359Z,56.56
2019-06-04T08:18:40.096Z,55.05
2019-06-04T08:21:10.613Z,56.23
2019-06-04T08:23:43.358Z,56.23
2019-06-04T08:26:13.475Z,57.00
2019-06-04T08:28:44.978Z,55.13
2019-06-04T08:31:16.133Z,55.34
2019-06-04T08:33:47.015Z,55.98
2019-06-04T08:36:17.682Z,55.89
2019-06-04T08:38:56.098Z,56.40
2019-06-04T08:41:20.473Z,55.95
2019-06-04T08:43:54.085Z,54.58
2019-06-04T08:46:30.065Z,53.32
2019-06-04T08:49:04.334Z,52.40
2019-06-04T08:51:37.792Z,53.06
2019-06-04T08:54:08.283Z,51.18
2019-06-04T08:56:45.641Z,50.76
2019-06-04T09:02:27.599Z,50.62
2019-06-04T09:04:59.877Z,48.01
2019-06-04T09:07:32.880Z,48.34
2019-06-04T09:12:30.317Z,48.49
2019-06-04T09:15:00.928Z,48.38
2019-06-04T09:17:42.283Z,48.37
2019-06-04T09:20:12.474Z,48.16
2019-06-04T09:22:45.615Z,48.32
2019-06-04T09:25:19.264Z,50.00
2019-06-04T09:27:49.743Z,49.94
2019-06-04T09:30:23.160Z,49.96
2019-06-04T09:32:53.690Z,49.83
2019-06-04T09:35:24.631Z,49.63
2019-06-04T09:38:03.621Z,49.69
2019-06-04T09:40:28.291Z,49.00
2019-06-04T09:42:59.076Z,48.98
2019-06-04T09:45:29.719Z,48.31
2019-06-04T09:48:00.209Z,49.51
2019-06-04T09:50:32.181Z,49.19
2019-06-04T09:53:02.739Z,49.73
2019-06-04T09:55:33.191Z,48.40
2019-06-04T09:58:28.674Z,48.74
2019-06-04T10:00:47.972Z,47.08
2019-06-04T10:03:19.103Z,47.06
2019-06-04T10:05:51.928Z,45.92
2019-06-04T10:08:23.246Z,46.11
2019-06-04T10:10:53.743Z,46.35
2019-06-04T10:13:24.214Z,46.15
2019-06-04T10:15:54.668Z,46.31
2019-06-04T10:18:25.045Z,46.00
2019-06-04T10:20:55.596Z,47.05
2019-06-04T10:23:26.468Z,46.28
2019-06-04T10:26:22.100Z,46.65
2019-06-04T10:28:30.504Z,46.93
2019-06-04T10:31:03.321Z,46.97
2019-06-04T10:33:36.540Z,45.81
2019-06-04T10:36:07.049Z,47.03
2019-06-04T10:38:37.710Z,46.29
2019-06-04T10:41:17.676Z,45.59
2019-06-04T10:43:49.261Z,45.27
2019-06-04T10:46:23.525Z,45.91
2019-06-04T10:48:57.070Z,45.61
2019-06-04T10:51:30.399Z,45.88
2019-06-04T10:54:08.070Z,44.99
2019-06-04T10:56:38.894Z,44.85
2019-06-04T11:02:27.030Z,45.27
2019-06-04T11:04:57.488Z,45.07
2019-06-04T11:07:27.972Z,45.43
2019-06-04T11:09:58.573Z,44.66
2019-06-04T11:12:28.981Z,43.33
2019-06-04T11:15:00.645Z,43.50
2019-06-04T11:17:31.183Z,44.32
2019-06-04T11:20:03.247Z,44.12
2019-06-04T11:22:33.805Z,42.80
2019-06-04T11:25:04.494Z,42.70
2019-06-04T11:27:35.299Z,43.35
2019-06-04T11:30:09.263Z,41.94
2019-06-04T11:32:39.737Z,42.42
2019-06-04T11:35:10.444Z,40.31
2019-06-04T11:37:55.442Z,40.63
2019-06-04T11:40:31.981Z,39.57
2019-06-04T11:43:11.678Z,40.02
2019-06-04T11:45:50.688Z,39.02
2019-06-04T11:48:23.024Z,39.41
2019-06-04T11:50:55.376Z,39.35
2019-06-04T11:53:32.325Z,39.44
2019-06-04T11:56:02.007Z,39.03
2019-06-04T11:58:33.268Z,39.53
2019-06-04T12:01:16.327Z,39.16
2019-06-04T12:03:37.637Z,38.60
2019-06-04T12:06:19.915Z,38.40
2019-06-04T12:09:03.790Z,38.38
2019-06-04T12:11:40.325Z,37.28
2019-06-04T12:14:10.852Z,37.81
2019-06-04T12:16:44.967Z,37.68
2019-06-04T12:19:13.991Z,37.82
2019-06-04T12:21:44.599Z,37.55
2019-06-04T12:24:15.147Z,36.95
2019-06-04T12:26:45.675Z,37.83
2019-06-04T12:29:19.043Z,38.47
2019-06-04T12:31:49.629Z,37.31
2019-06-04T12:34:20.260Z,37.26
2019-06-04T12:36:50.788Z,36.83
2019-06-04T12:39:23.430Z,36.80
2019-06-04T12:41:54.630Z,37.36
2019-06-04T12:44:25.391Z,38.11
2019-06-04T12:46:58.966Z,36.57
2019-06-04T12:49:48.825Z,35.14
2019-06-04T12:52:15.315Z,35.63
2019-06-04T12:54:49.030Z,36.56
2019-06-04T12:57:20.752Z,36.07
2019-06-04T13:02:29.825Z,36.53
2019-06-04T13:05:04.083Z,35.93
2019-06-04T13:07:34.040Z,34.39
2019-06-04T13:10:17.846Z,34.76
2019-06-04T13:12:39.589Z,33.97
2019-06-04T13:15:12.711Z,34.18
2019-06-04T13:17:43.612Z,33.61
2019-06-04T13:20:27.996Z,35.49
2019-06-04T13:22:56.680Z,34.56
2019-06-04T13:25:32.577Z,34.25
2019-06-04T13:28:07.136Z,34.52
2019-06-04T13:30:54.925Z,33.36
2019-06-04T13:33:26.333Z,33.58
2019-06-04T13:35:57.253Z,34.67
2019-06-04T13:38:27.954Z,35.11
2019-06-04T13:40:58.961Z,34.43
2019-06-04T13:43:31.848Z,34.63
2019-06-04T13:46:03.084Z,32.97
2019-06-04T13:48:33.631Z,34.01
2019-06-04T13:51:05.643Z,32.43
2019-06-04T13:53:36.207Z,32.86
2019-06-04T13:56:08.415Z,33.49
2019-06-04T13:58:38.946Z,32.97
2019-06-04T14:01:11.356Z,33.82
2019-06-04T14:03:41.901Z,32.31
2019-06-04T14:06:23.566Z,32.49
2019-06-04T14:08:56.359Z,32.19
2019-06-04T14:11:35.656Z,31.44
2019-06-04T14:14:18.565Z,32.45
2019-06-04T14:16:38.778Z,32.36
2019-06-04T14:19:09.345Z,32.09
2019-06-04T14:21:39.797Z,31.96
2019-06-04T14:24:10.867Z,31.52
2019-06-04T14:26:41.337Z,33.12
2019-06-04T14:29:13.888Z,33.76
2019-06-04T14:31:44.488Z,33.61
2019-06-04T14:34:24.867Z,32.15
2019-06-04T14:36:50.757Z,32.16
2019-06-04T14:39:27.099Z,30.77
2019-06-04T14:42:00.250Z,31.46
2019-06-04T14:44:30.883Z,31.82
2019-06-04T14:47:01.393Z,31.27
2019-06-04T14:49:32.148Z,31.47
2019-06-04T14:52:05.678Z,31.94
2019-06-04T14:54:43.875Z,30.63
2019-06-04T14:57:25.239Z,31.74
2019-06-04T15:13:27.609Z,32.19
2019-06-04T15:16:00.582Z,32.94
2019-06-04T15:18:36.240Z,32.62
2019-06-04T15:21:10.404Z,32.08
2019-06-04T15:23:46.528Z,32.31
2019-06-04T15:26:22.447Z,32.17
2019-06-04T15:28:49.458Z,32.87
2019-06-04T15:31:20.053Z,32.53
2019-06-04T15:33:50.558Z,33.05
2019-06-04T15:36:24.857Z,32.72
2019-06-04T15:38:54.085Z,31.93
2019-06-04T15:41:44.678Z,32.41
2019-06-04T15:44:10.612Z,32.39
2019-06-04T15:46:44.509Z,33.29
2019-06-04T15:49:18.221Z,32.55
2019-06-04T15:51:51.530Z,33.09
2019-06-04T15:54:26.203Z,33.46
2019-06-04T15:57:00.030Z,33.75
2019-06-04T15:59:32.523Z,33.76
2019-06-04T16:02:19.168Z,34.07
2019-06-04T16:05:02.706Z,33.92
2019-06-04T16:10:21.244Z,33.48
2019-06-04T16:12:52.704Z,33.65
2019-06-04T16:15:26.243Z,34.14
2019-06-04T16:17:58.141Z,34.27
2019-06-04T16:20:40.548Z,34.37
2019-06-04T16:23:15.814Z,34.32
2019-06-04T16:25:48.932Z,34.04
2019-06-04T16:28:22.760Z,35.74
2019-06-04T16:30:57.735Z,35.08
2019-06-04T16:33:35.081Z,37.59
2019-06-04T16:36:12.717Z,36.56
2019-06-04T16:38:57.518Z,36.44
2019-06-04T16:41:33.941Z,36.43
2019-06-04T16:46:42.140Z,36.79
2019-06-04T16:49:15.813Z,34.83
2019-06-04T16:51:46.518Z,34.21
2019-06-04T16:54:17.393Z,33.03
2019-06-04T16:56:49.355Z,32.02
2019-06-04T17:02:29.938Z,32.43
2019-06-04T17:05:01.017Z,33.46
2019-06-04T17:07:32.409Z,32.72
2019-06-04T17:10:06.388Z,32.87
2019-06-04T17:12:53.635Z,32.58
2019-06-04T17:15:28.668Z,33.29
2019-06-04T17:18:00.167Z,33.06
2019-06-04T17:20:31.710Z,34.73
2019-06-04T17:23:05.555Z,35.66
2019-06-04T17:25:36.477Z,37.50
2019-06-04T17:28:08.737Z,38.46
2019-06-04T17:30:41.097Z,38.25
2019-06-04T17:33:13.082Z,38.38
2019-06-04T17:35:43.612Z,38.54
2019-06-04T17:38:16.617Z,38.59
2019-06-04T17:40:47.168Z,38.98
2019-06-04T17:43:18.029Z,39.30
2019-06-04T17:45:51.700Z,39.70
2019-06-04T17:48:28.512Z,39.48
2019-06-04T17:51:00.676Z,39.55
2019-06-04T17:53:32.441Z,39.23
2019-06-04T17:56:03.251Z,39.23
2019-06-04T17:58:35.215Z,39.92
2019-06-04T18:01:05.830Z,40.09
2019-06-04T18:03:36.425Z,39.96
2019-06-04T18:06:08.246Z,40.06
2019-06-04T18:08:39.990Z,40.04
2019-06-04T18:11:13.910Z,40.40
2019-06-04T18:13:44.784Z,41.03
2019-06-04T18:16:16.753Z,41.01
2019-06-04T18:18:47.671Z,41.65
2019-06-04T18:21:18.245Z,41.14
2019-06-04T18:23:49.170Z,41.57
2019-06-04T18:26:19.690Z,41.58
2019-06-04T18:28:51.816Z,42.12
2019-06-04T18:31:22.737Z,41.87
2019-06-04T18:33:53.467Z,42.27
2019-06-04T18:36:24.254Z,42.59
2019-06-04T18:38:57.887Z,42.81
2019-06-04T18:41:32.388Z,43.10
2019-06-04T18:44:04.747Z,43.60
2019-06-04T18:46:37.161Z,43.99
2019-06-04T18:49:09.462Z,44.34
2019-06-04T18:51:40.324Z,45.17
2019-06-04T18:54:11.047Z,45.36
2019-06-04T18:56:42.149Z,45.23
2019-06-04T19:02:27.319Z,46.37
2019-06-04T19:04:58.280Z,46.57
2019-06-04T19:07:34.982Z,47.06
2019-06-04T19:10:08.182Z,47.54
2019-06-04T19:12:39.487Z,47.39
2019-06-04T19:15:12.004Z,47.34
2019-06-04T19:17:43.312Z,48.03
2019-06-04T19:20:15.933Z,47.74
2019-06-04T19:22:46.768Z,47.74
2019-06-04T19:25:23.292Z,48.35
2019-06-04T19:27:53.826Z,48.08
2019-06-04T19:30:24.582Z,48.55
2019-06-04T19:32:55.111Z,48.27
2019-06-04T19:35:26.051Z,48.80
2019-06-04T19:37:56.575Z,48.60
2019-06-04T19:40:30.569Z,49.33
2019-06-04T19:43:01.056Z,48.90
2019-06-04T19:45:33.811Z,48.80
2019-06-04T19:48:05.603Z,49.19
2019-06-04T19:50:36.799Z,49.83
2019-06-04T19:54:06.464Z,49.40
2019-06-04T19:59:40.381Z,49.55
2019-06-04T20:02:10.173Z,49.93
2019-06-04T20:04:41.845Z,50.09
2019-06-04T20:07:16.429Z,50.00
2019-06-04T20:09:47.008Z,49.98
2019-06-04T20:12:17.445Z,50.03
2019-06-04T20:14:50.314Z,50.27
2019-06-04T20:17:20.925Z,49.94
2019-06-04T20:19:51.723Z,49.62
2019-06-04T20:22:22.867Z,49.82
2019-06-04T20:24:55.299Z,49.78
2019-06-04T20:27:25.843Z,49.65
2019-06-04T20:29:57.807Z,50.04
2019-06-04T20:32:40.385Z,49.61
2019-06-04T20:35:16.667Z,49.70
2019-06-04T20:38:02.801Z,49.74
2019-06-04T20:40:31.613Z,49.60
2019-06-04T20:43:02.679Z,49.52
2019-06-04T20:45:33.209Z,49.52
2019-06-04T20:48:05.530Z,49.71
2019-06-04T20:50:44.886Z,49.35
2019-06-04T20:53:16.311Z,49.72
2019-06-04T20:55:57.072Z,50.02
2019-06-04T20:58:39.750Z,50.61
2019-06-04T21:13:45.170Z,50.82
2019-06-04T21:16:15.938Z,51.13
2019-06-04T21:18:49.956Z,51.39
2019-06-04T21:21:21.027Z,51.03
2019-06-04T21:23:52.202Z,50.85
2019-06-04T21:26:24.132Z,51.23
2019-06-04T21:28:55.404Z,50.96
2019-06-04T21:31:26.062Z,50.88
2019-06-04T21:33:56.689Z,51.44
2019-06-04T21:36:27.165Z,51.37
2019-06-04T21:38:57.686Z,51.68
2019-06-04T21:41:28.232Z,51.37
2019-06-04T21:43:58.835Z,51.70
2019-06-04T21:46:29.355Z,52.20
2019-06-04T21:49:00.608Z,52.36
2019-06-04T21:51:31.106Z,52.04
2019-06-04T21:54:02.587Z,52.08
2019-06-04T21:56:33.136Z,52.63
2019-06-04T21:59:03.613Z,52.57
2019-06-04T22:01:34.231Z,52.60
2019-06-04T22:04:04.823Z,52.88
2019-06-04T22:06:35.392Z,53.21
2019-06-04T22:09:09.522Z,53.19
2019-06-04T22:11:40.158Z,53.41
2019-06-04T22:14:10.751Z,53.70
2019-06-04T22:16:41.321Z,54.22
2019-06-04T22:19:11.855Z,54.48
2019-06-04T22:21:42.403Z,54.66
2019-06-04T22:24:13.457Z,54.56
2019-06-04T22:26:44.011Z,54.65
2019-06-04T22:29:14.567Z,54.73
2019-06-04T22:31:45.189Z,54.99
2019-06-04T22:34:16.069Z,54.88
2019-06-04T22:36:46.594Z,55.42
2019-06-04T22:39:17.470Z,55.90
2019-06-04T22:41:50.016Z,56.16
2019-06-04T22:44:20.750Z,56.86
2019-06-04T22:46:52.655Z,57.00
2019-06-04T22:49:23.583Z,57.60
2019-06-04T22:51:56.035Z,58.28
2019-06-04T22:54:26.532Z,58.97
2019-06-04T22:56:57.218Z,59.70
2019-06-04T23:13:14.606Z,63.36
2019-06-04T23:15:45.231Z,63.77
2019-06-04T23:18:15.748Z,63.65
2019-06-04T23:20:46.460Z,63.60
2019-06-04T23:23:17.156Z,64.30
2019-06-04T23:25:47.805Z,64.83
2019-06-04T23:28:21.193Z,65.72
2019-06-04T23:30:50.789Z,65.88
2019-06-04T23:33:21.420Z,66.19
2019-06-04T23:35:52.359Z,66.80
2019-06-04T23:38:23.032Z,66.98
2019-06-04T23:41:01.561Z,67.43
2019-06-04T23:43:32.163Z,67.31
2019-06-04T23:46:08.947Z,67.85
2019-06-04T23:48:39.403Z,67.87
2019-06-04T23:51:10.104Z,68.42
2019-06-04T23:53:40.556Z,68.52
2019-06-04T23:56:11.330Z,68.80
2019-06-04T23:58:41.881Z,69.30
